Aérodrome :
LOGIN :

S'inscrire | Disclaimer

   EN    FR    IT 

 










Légende :    VFR   VFR Marginal   IFR   IFR Intensif   IFR Très Intensif
Visi : 
Plafond : 
>= 8 km
>= 3000ft
5 à 8 km
1000 à 3000 ft
1500m à 5 km
500 à 1000 ft
800 à 1500m
200 à 500 ft
< 800m
< 200 ft
Symboles :   Orages  Brouillard  Fortes neiges  Fortes précipitations  Vent > 20 kt
SIGMETs :   Divers  Orages  Givrage  Turbulence  Onde Orograph.  Cendres Volcan.







- Altitude de l'aérodrome : 1267 ft
- Code IATA : CUF


LIMZ - Cuneo Levaldigi

DERNIER METAR :
  • 251150Z 12003KT 9999 FEW030 25/15 Q1017

METARs EXPIRÉS :
  • 251050Z 02005KT CAVOK 22/15 Q1017
  • 250950Z VRB04KT CAVOK 22/16 Q1017

TAF TAF LIMZ
Valide du 25 à 12h jusqu'au 26 à 12h UTC


251100Z 2512/2612 04007KT CAVOK
Pas de NOTAMs connus pour ce terrain.
3 SIGMETs publiés pour la FIR Milano (LIMM) :
 
Orages noyés dans la masse
LIMM SIGMET 7 VALID 251140/251340 LIIP
LIMM MILANO FIR EMBD TS OBS WI N4417 E01336 - N4403 E00917 - N4315 E00949 - N4341 E01045 - N4330 E01426 - N4417 E01336 TOP FL320 MOV SSE NC=
Orages noyés dans la masse
LIMM SIGMET 6 VALID 250940/251140 LIIP
LIMM MILANO FIR EMBD TS OBS WI N4442 E01251 - N4412 E01130 - N4343 E01213 - N4334 E01402 - N4442 E01251 TOP FL320 MOV SSE WKN=
Turbulence forte
LIMM SIGMET 5 VALID 250900/251300 LIIP
LIMM MILANO FIR SEV TURB FCST E OF LINE N4618 E00851 - N4324 E00830 FL250/330 MOV E NC=



MET'MAP, la Météo Aéronautique d'un coup d'oeil ! - Copyright ORBIFLY Décembre 2007 - Disclaimer

ORBIFLY MET'MAP TEAM :

Programmation & Développement : Alexandra Zaïnal
Conception & Développement : Baudouin d'Aumeries
Co-Programmation & Développement : Marc-Olivier Méhu
Soutien technique & logistique : Manuel Goepfert

Contact : metmap@orbifly.com




SOURCES & CREDITS :

   NOAA